Time;durP1;ratioP1;P1;durP2;ratioP2;P2;SDS_P1;SDS_P2;PMS_P1;PMS_P2;Temp;Humidity;BMP_temperature;BMP_pressure;BME280_temperature;BME280_humidity;BME280_pressure;Samples;Min_cycle;Max_cycle;Signal;HPM_P1;HPM_P2
2023/03/15 00:00:48;;;;;;;6.35;1.42;;;3.30;99.90;;;;;;5071455;28;20040;-68
2023/03/15 00:03:14;;;;;;;11.68;1.95;;;3.10;99.90;;;;;;5068805;28;20140;-68
2023/03/15 00:05:45;;;;;;;3.03;1.08;;;3.40;99.90;;;;;;5076259;28;20490;-68
2023/03/15 00:08:11;;;;;;;5.75;1.40;;;3.30;99.90;;;;;;5089038;28;20146;-68
2023/03/15 00:10:41;;;;;;;;;;;3.00;99.90;;;;;;5081204;28;20040;-69
2023/03/15 00:13:07;;;;;;;9.82;1.48;;;3.20;99.90;;;;;;5072891;28;20011;-68
2023/03/15 00:15:33;;;;;;;5.22;1.08;;;2.90;99.90;;;;;;5074118;28;20449;-68
2023/03/15 00:17:58;;;;;;;4.40;1.30;;;3.10;99.90;;;;;;5089024;28;20036;-68
2023/03/15 00:20:24;;;;;;;5.63;1.10;;;2.90;99.90;;;;;;5081102;28;20282;-68
2023/03/15 00:22:50;;;;;;;4.10;1.00;;;3.00;99.90;;;;;;5088252;28;20079;-68
2023/03/15 00:25:15;;;;;;;4.78;1.17;;;2.80;99.90;;;;;;5070020;28;20044;-68
2023/03/15 00:27:41;;;;;;;3.53;0.90;;;2.70;99.90;;;;;;5088089;28;20868;-68
2023/03/15 00:30:08;;;;;;;7.30;0.90;;;2.70;99.90;;;;;;5084969;28;20073;-68
2023/03/15 00:32:33;;;;;;;;;;;3.00;99.90;;;;;;5069743;28;20101;-68
2023/03/15 00:35:00;;;;;;;4.22;0.70;;;3.00;99.90;;;;;;5068512;28;20379;-68
2023/03/15 00:37:26;;;;;;;3.20;1.05;;;2.60;99.90;;;;;;5088221;28;20506;-68
2023/03/15 00:39:54;;;;;;;4.50;0.80;;;2.70;99.90;;;;;;5081176;28;20136;-67
2023/03/15 00:42:20;;;;;;;4.45;1.05;;;2.50;99.90;;;;;;5086911;28;20040;-67
2023/03/15 00:44:46;;;;;;;6.50;1.17;;;2.40;99.90;;;;;;5070149;28;20040;-67
2023/03/15 00:47:13;;;;;;;5.10;1.00;;;2.40;99.90;;;;;;5077220;28;20256;-67
2023/03/15 00:49:40;;;;;;;4.60;0.90;;;2.80;99.90;;;;;;5083330;28;20081;-68
2023/03/15 00:52:06;;;;;;;;;;;2.80;99.90;;;;;;5086587;28;20075;-67
2023/03/15 00:54:32;;;;;;;6.05;0.90;;;2.40;99.90;;;;;;5092211;28;19920;-67
2023/03/15 00:56:59;;;;;;;;;;;2.40;99.90;;;;;;5079156;28;20041;-67
2023/03/15 00:59:27;;;;;;;4.13;1.08;;;2.50;99.90;;;;;;5078449;28;19920;-67
2023/03/15 01:01:52;;;;;;;5.72;1.13;;;2.90;99.90;;;;;;5080116;28;20044;-67
2023/03/15 01:04:18;;;;;;;7.70;1.50;;;2.80;99.90;;;;;;5081721;28;20121;-68
2023/03/15 01:06:44;;;;;;;8.57;1.35;;;2.70;99.90;;;;;;5082331;28;20060;-68
2023/03/15 01:09:09;;;;;;;5.25;1.05;;;3.00;99.90;;;;;;5038756;28;20372;-69
2023/03/15 01:11:35;;;;;;;7.47;1.00;;;2.70;99.90;;;;;;5046274;28;20032;-68
2023/03/15 01:14:03;;;;;;;6.28;0.88;;;2.60;99.90;;;;;;5092202;28;20963;-68
2023/03/15 01:16:29;;;;;;;5.15;1.05;;;2.90;99.90;;;;;;5091721;28;20039;-68
2023/03/15 01:18:56;;;;;;;8.07;1.17;;;2.40;99.90;;;;;;5091755;28;20530;-68
2023/03/15 01:21:22;;;;;;;5.25;0.88;;;2.70;99.90;;;;;;5081262;28;20628;-68
2023/03/15 01:23:49;;;;;;;5.63;1.20;;;2.30;99.90;;;;;;5071575;28;20123;-68
2023/03/15 01:26:17;;;;;;;5.40;1.17;;;2.80;99.90;;;;;;5071494;28;20048;-67
2023/03/15 01:28:43;;;;;;;2.90;0.80;;;2.30;99.90;;;;;;5071696;28;20052;-68
2023/03/15 01:31:17;;;;;;;5.88;1.00;;;2.30;99.90;;;;;;5072724;28;20043;-68
2023/03/15 01:33:43;;;;;;;4.25;0.68;;;2.60;99.90;;;;;;5071256;28;20503;-67
2023/03/15 01:36:09;;;;;;;4.88;0.80;;;2.20;99.90;;;;;;5071019;28;20080;-68
2023/03/15 01:38:35;;;;;;;4.10;0.95;;;2.20;99.90;;;;;;5071957;28;20041;-68
2023/03/15 01:41:01;;;;;;;7.30;0.90;;;2.10;99.90;;;;;;5071275;28;20505;-68
2023/03/15 01:43:28;;;;;;;8.02;0.98;;;2.60;99.90;;;;;;5090877;28;20039;-68
2023/03/15 01:46:02;;;;;;;5.07;0.88;;;2.20;99.90;;;;;;5091341;28;20055;-67
2023/03/15 01:48:44;;;;;;;6.95;1.17;;;2.30;99.90;;;;;;5071988;28;20074;-67
2023/03/15 01:51:32;;;;;;;2.78;0.80;;;2.40;99.90;;;;;;5071176;28;20495;-67
2023/03/15 01:54:28;;;;;;;5.40;0.98;;;1.80;99.90;;;;;;5071170;28;20079;-67
2023/03/15 01:57:00;;;;;;;1.55;0.60;;;1.90;99.90;;;;;;5072137;28;20132;-67
2023/03/15 01:59:39;;;;;;;2.60;0.75;;;2.10;99.90;;;;;;5071239;28;20426;-67
2023/03/15 02:02:06;;;;;;;3.08;0.70;;;2.20;99.90;;;;;;5070069;28;20041;-67
2023/03/15 02:04:40;;;;;;;2.10;0.60;;;2.00;99.90;;;;;;5071850;28;20780;-68
2023/03/15 02:07:07;;;;;;;3.08;0.52;;;1.90;99.90;;;;;;5076119;28;20505;-68
2023/03/15 02:10:04;;;;;;;3.88;0.57;;;1.90;99.90;;;;;;5080532;28;20053;-68
2023/03/15 02:12:33;;;;;;;0.60;0.40;;;1.50;99.90;;;;;;5076268;28;20044;-68
2023/03/15 02:15:02;;;;;;;1.02;0.47;;;1.60;99.90;;;;;;5076560;28;20045;-68
2023/03/15 02:17:35;;;;;;;2.53;0.40;;;2.00;99.90;;;;;;5077228;28;20494;-68
2023/03/15 02:20:03;;;;;;;3.60;0.40;;;1.80;99.90;;;;;;5071795;28;20080;-68
2023/03/15 02:22:38;;;;;;;4.68;0.75;;;1.90;99.90;;;;;;5077208;28;20050;-68
2023/03/15 02:25:19;;;;;;;1.08;0.50;;;1.50;99.90;;;;;;5090465;28;20136;-68
2023/03/15 02:27:45;;;;;;;5.00;0.75;;;1.70;99.90;;;;;;5089107;28;20051;-68
2023/03/15 02:30:11;;;;;;;3.88;0.85;;;1.40;99.90;;;;;;5073820;28;20067;-68
2023/03/15 02:32:36;;;;;;;4.97;0.80;;;1.30;99.90;;;;;;5074751;28;20395;-68
2023/03/15 02:35:03;;;;;;;5.70;0.98;;;1.40;99.90;;;;;;5089121;28;20064;-67
2023/03/15 02:37:28;;;;;;;5.63;1.02;;;1.40;99.90;;;;;;5089104;28;20463;-67
2023/03/15 02:39:54;;;;;;;5.85;1.17;;;1.50;99.90;;;;;;5087412;28;20114;-67
2023/03/15 02:42:20;;;;;;;1.73;0.50;;;1.90;99.90;;;;;;5080228;28;20032;-68
2023/03/15 02:44:47;;;;;;;11.07;2.17;;;1.90;99.90;;;;;;5073415;28;20290;-67
2023/03/15 02:47:18;;;;;;;5.22;0.80;;;2.00;99.90;;;;;;5075743;28;20093;-68
2023/03/15 02:49:48;;;;;;;7.18;1.20;;;1.60;99.90;;;;;;5070053;28;20058;-68
2023/03/15 02:52:13;;;;;;;3.08;0.70;;;1.90;99.90;;;;;;5073125;28;20075;-68
2023/03/15 02:54:42;;;;;;;5.28;1.10;;;1.80;99.90;;;;;;5075200;28;20083;-68
2023/03/15 02:57:08;;;;;;;2.40;0.70;;;1.80;99.90;;;;;;5063024;28;20066;-67
2023/03/15 02:59:34;;;;;;;8.60;1.00;;;2.00;99.90;;;;;;5090257;28;20138;-68
2023/03/15 03:02:00;;;;;;;5.68;0.90;;;2.00;99.90;;;;;;5089916;28;20547;-67
2023/03/15 03:04:25;;;;;;;4.65;0.90;;;2.10;99.90;;;;;;5070146;28;20036;-68
2023/03/15 03:06:51;;;;;;;7.63;0.88;;;1.80;99.90;;;;;;5080619;28;20044;-67
2023/03/15 03:09:17;;;;;;;2.30;0.70;;;1.90;99.90;;;;;;5073182;28;20093;-67
2023/03/15 03:11:43;;;;;;;3.17;0.80;;;1.80;99.90;;;;;;5064877;28;20467;-67
2023/03/15 03:14:08;;;;;;;3.72;0.82;;;2.10;99.90;;;;;;5088699;28;20043;-67
2023/03/15 03:16:34;;;;;;;3.45;0.65;;;2.10;99.90;;;;;;5065002;28;20044;-67
2023/03/15 03:19:00;;;;;;;3.38;0.90;;;1.90;99.90;;;;;;5062874;28;20055;-67
2023/03/15 03:21:25;;;;;;;5.70;0.70;;;2.10;99.90;;;;;;5088662;28;20127;-67
2023/03/15 03:23:53;;;;;;;3.50;0.85;;;2.10;99.90;;;;;;5086233;28;20044;-67
2023/03/15 03:26:19;;;;;;;5.95;1.02;;;1.90;99.90;;;;;;5067972;28;20046;-67
2023/03/15 03:28:46;;;;;;;2.87;0.50;;;2.10;99.90;;;;;;5087556;28;20142;-67
2023/03/15 03:31:17;;;;;;;3.13;0.85;;;2.00;99.90;;;;;;5071429;28;20361;-67
2023/03/15 03:33:43;;;;;;;6.65;0.90;;;1.80;99.90;;;;;;5079028;28;20054;-67
2023/03/15 03:36:11;;;;;;;5.63;1.40;;;2.00;99.90;;;;;;5087798;28;20039;-66
2023/03/15 03:38:40;;;;;;;1.85;0.50;;;1.80;99.90;;;;;;5078518;28;20036;-67
2023/03/15 03:41:06;;;;;;;5.43;1.27;;;1.90;99.90;;;;;;5072703;28;20047;-66
2023/03/15 03:43:32;;;;;;;4.18;1.00;;;1.60;99.90;;;;;;5078843;28;20036;-67
2023/03/15 03:45:57;;;;;;;4.45;0.90;;;1.70;99.90;;;;;;5072233;28;20051;-66
2023/03/15 03:48:23;;;;;;;4.93;1.50;;;1.90;99.90;;;;;;5067306;28;20044;-66
2023/03/15 03:50:49;;;;;;;6.70;1.05;;;1.60;99.90;;;;;;5070759;28;20041;-66
2023/03/15 03:53:15;;;;;;;6.70;1.10;;;1.60;99.90;;;;;;5071156;28;20115;-67
2023/03/15 03:55:41;;;;;;;6.18;1.25;;;1.50;99.90;;;;;;5069928;28;20045;-67
2023/03/15 03:58:08;;;;;;;4.40;0.90;;;1.60;99.90;;;;;;5087054;28;20047;-67
2023/03/15 04:00:34;;;;;;;4.55;1.42;;;1.70;99.90;;;;;;5090734;28;20040;-67
2023/03/15 04:03:00;;;;;;;3.45;0.98;;;1.40;99.90;;;;;;5088800;28;20101;-67
2023/03/15 04:05:27;;;;;;;4.07;0.65;;;1.40;99.90;;;;;;5069263;28;20109;-67
2023/03/15 04:07:53;;;;;;;2.63;0.60;;;1.60;99.90;;;;;;5070466;28;20111;-66
2023/03/15 04:10:25;;;;;;;2.47;0.50;;;1.40;99.90;;;;;;5073699;28;20502;-67
2023/03/15 04:12:53;;;;;;;3.28;0.52;;;1.50;99.90;;;;;;5089154;28;20067;-67
2023/03/15 04:15:18;;;;;;;1.95;0.57;;;1.50;99.90;;;;;;5071430;28;20080;-67
2023/03/15 04:17:44;;;;;;;2.70;0.65;;;1.50;99.90;;;;;;5084917;28;20110;-67
2023/03/15 04:20:11;;;;;;;3.08;0.90;;;1.40;99.90;;;;;;5073063;28;20041;-67
2023/03/15 04:22:38;;;;;;;1.75;0.68;;;1.40;99.90;;;;;;5069075;28;20142;-67
2023/03/15 04:25:04;;;;;;;;;;;1.40;99.90;;;;;;5086156;28;20487;-67
2023/03/15 04:27:30;;;;;;;2.60;0.65;;;1.20;99.90;;;;;;5082895;28;19923;-67
2023/03/15 04:29:56;;;;;;;3.75;0.75;;;1.30;99.90;;;;;;5089729;28;20114;-66
2023/03/15 04:32:21;;;;;;;4.28;1.02;;;1.20;99.90;;;;;;5094409;28;20040;-66
2023/03/15 04:34:50;;;;;;;3.67;1.15;;;1.30;99.90;;;;;;5083274;28;20053;-66
2023/03/15 04:37:17;;;;;;;3.83;1.00;;;1.30;99.90;;;;;;5074931;28;20051;-67
2023/03/15 04:39:43;;;;;;;1.25;0.52;;;1.20;99.90;;;;;;5093657;28;20039;-67
2023/03/15 04:42:09;;;;;;;1.88;0.50;;;1.10;99.90;;;;;;5076112;28;20041;-67
2023/03/15 04:44:35;;;;;;;;;;;1.10;99.90;;;;;;5070789;28;20033;-66
2023/03/15 04:47:01;;;;;;;1.70;0.43;;;1.00;99.90;;;;;;5080222;28;20398;-67
2023/03/15 04:49:26;;;;;;;1.15;0.40;;;0.90;99.90;;;;;;5070438;28;20048;-66
2023/03/15 04:51:52;;;;;;;0.93;0.47;;;0.60;99.90;;;;;;5072535;28;20495;-67
2023/03/15 04:54:18;;;;;;;0.63;0.30;;;0.80;99.90;;;;;;5058948;28;20040;-66
2023/03/15 04:56:43;;;;;;;1.08;0.30;;;0.70;99.90;;;;;;5086767;28;20083;-67
2023/03/15 04:59:10;;;;;;;0.63;0.20;;;0.40;99.90;;;;;;5073195;28;20043;-67
2023/03/15 05:01:36;;;;;;;1.10;0.35;;;0.60;99.90;;;;;;5091078;28;20039;-67
2023/03/15 05:04:02;;;;;;;1.45;0.22;;;0.50;99.90;;;;;;5082963;28;20041;-67
2023/03/15 05:06:28;;;;;;;1.60;0.50;;;0.30;99.90;;;;;;5088364;28;20102;-67
2023/03/15 05:08:54;;;;;;;2.53;0.43;;;0.30;99.90;;;;;;5071943;28;20540;-68
2023/03/15 05:11:20;;;;;;;1.55;0.50;;;0.20;99.90;;;;;;5086539;28;20040;-67
2023/03/15 05:13:45;;;;;;;0.63;0.25;;;0.00;99.90;;;;;;5077030;28;20055;-67
2023/03/15 05:16:11;;;;;;;0.63;0.20;;;0.00;99.90;;;;;;5074668;28;20190;-67
2023/03/15 05:18:37;;;;;;;0.35;0.20;;;0.00;99.90;;;;;;5077588;28;20078;-67
2023/03/15 05:21:04;;;;;;;0.60;0.30;;;0.20;99.90;;;;;;5071194;28;20071;-67
2023/03/15 05:23:32;;;;;;;1.25;0.40;;;-0.10;99.90;;;;;;5077921;28;20036;-66
2023/03/15 05:25:59;;;;;;;1.17;0.40;;;0.10;99.90;;;;;;5075565;28;20136;-67
2023/03/15 05:28:25;;;;;;;1.35;0.32;;;-0.10;99.90;;;;;;5071108;28;20048;-67
2023/03/15 05:30:51;;;;;;;1.15;0.50;;;0.10;99.90;;;;;;5085509;28;20051;-66
2023/03/15 05:33:18;;;;;;;3.80;0.93;;;-0.10;99.90;;;;;;5091097;28;20101;-67
2023/03/15 05:35:44;;;;;;;3.33;0.70;;;0.10;99.90;;;;;;5068277;28;20415;-67
2023/03/15 05:38:13;;;;;;;2.83;0.47;;;0.00;99.90;;;;;;5091531;28;20052;-69
2023/03/15 05:40:44;;;;;;;2.83;0.68;;;0.50;99.90;;;;;;5084769;28;20075;-68
2023/03/15 05:43:10;;;;;;;3.50;0.63;;;0.20;99.90;;;;;;5072841;28;20515;-68
2023/03/15 05:45:36;;;;;;;7.22;1.00;;;0.40;99.90;;;;;;5082014;28;20124;-68
2023/03/15 05:48:02;;;;;;;7.28;0.95;;;0.80;99.90;;;;;;5072489;28;20040;-68
2023/03/15 05:50:27;;;;;;;8.18;1.00;;;0.90;99.90;;;;;;5074700;28;20040;-67
2023/03/15 05:52:54;;;;;;;5.80;1.02;;;0.80;99.90;;;;;;5079220;28;20043;-66
2023/03/15 05:55:20;;;;;;;3.13;0.75;;;0.80;99.90;;;;;;5082058;28;20277;-67
2023/03/15 05:57:45;;;;;;;3.53;1.00;;;0.80;99.90;;;;;;5082955;28;20047;-67
2023/03/15 06:00:13;;;;;;;4.75;0.82;;;1.20;99.90;;;;;;5082277;28;20503;-68
2023/03/15 06:02:40;;;;;;;5.35;1.13;;;1.30;99.90;;;;;;5084123;28;20032;-68
2023/03/15 06:05:06;;;;;;;;;;;1.10;99.90;;;;;;5076793;28;20049;-68
2023/03/15 06:07:31;;;;;;;6.68;2.20;;;0.90;99.90;;;;;;5088646;28;19927;-68
2023/03/15 06:09:57;;;;;;;4.72;1.10;;;0.90;99.90;;;;;;5071971;28;20417;-68
2023/03/15 06:12:23;;;;;;;6.53;1.08;;;1.30;99.90;;;;;;5076435;28;20411;-68
2023/03/15 06:14:49;;;;;;;4.47;0.93;;;1.20;99.90;;;;;;5084738;28;20126;-69
2023/03/15 06:17:14;;;;;;;3.40;0.87;;;0.90;99.90;;;;;;5074025;28;20059;-69
2023/03/15 06:19:40;;;;;;;3.63;0.93;;;1.10;99.90;;;;;;5071273;28;20298;-68
2023/03/15 06:22:06;;;;;;;4.50;1.10;;;1.40;99.90;;;;;;5074631;28;20120;-68
2023/03/15 06:24:31;;;;;;;5.63;0.95;;;1.50;99.90;;;;;;5071771;28;20050;-69
2023/03/15 06:26:57;;;;;;;4.07;0.70;;;1.00;99.90;;;;;;5082595;28;20165;-69
2023/03/15 06:29:24;;;;;;;5.25;0.93;;;1.00;99.90;;;;;;5076172;28;20106;-68
2023/03/15 06:31:49;;;;;;;;;;;1.60;99.90;;;;;;5077516;28;20052;-70
2023/03/15 06:34:15;;;;;;;8.55;1.20;;;1.10;99.90;;;;;;5061802;28;19916;-69
2023/03/15 06:36:41;;;;;;;7.93;1.25;;;1.10;99.90;;;;;;5065094;28;20047;-68
2023/03/15 06:39:10;;;;;;;3.83;0.90;;;1.70;99.90;;;;;;5077153;28;20741;-69
2023/03/15 06:41:35;;;;;;;6.85;0.88;;;1.50;99.90;;;;;;5080058;28;20044;-69
2023/03/15 06:44:01;;;;;;;5.13;1.23;;;1.40;99.90;;;;;;5054235;28;20040;-68
2023/03/15 06:46:27;;;;;;;1.63;0.73;;;1.40;99.90;;;;;;5078388;28;20090;-68
2023/03/15 06:48:52;;;;;;;5.43;0.90;;;1.70;99.90;;;;;;5071725;28;20896;-69
2023/03/15 06:51:19;;;;;;;6.25;1.08;;;1.70;99.90;;;;;;5074389;28;20124;-69
2023/03/15 06:53:44;;;;;;;5.53;1.15;;;1.20;99.90;;;;;;5083771;28;20047;-69
2023/03/15 06:56:10;;;;;;;5.78;0.98;;;1.30;99.90;;;;;;5088424;28;20036;-69
2023/03/15 06:58:36;;;;;;;2.60;0.90;;;1.60;99.90;;;;;;5083425;28;20111;-69
2023/03/15 07:01:02;;;;;;;5.60;1.20;;;1.60;99.90;;;;;;5081303;28;20127;-69
2023/03/15 07:03:28;;;;;;;6.13;1.52;;;1.40;99.90;;;;;;5069363;28;20303;-69
2023/03/15 07:05:53;;;;;;;4.20;1.13;;;1.40;99.90;;;;;;5073091;28;20047;-68
2023/03/15 07:08:24;;;;;;;4.82;0.80;;;1.80;99.90;;;;;;5080711;28;20041;-67
2023/03/15 07:10:50;;;;;;;4.18;1.05;;;1.70;99.90;;;;;;5077255;28;20076;-68
2023/03/15 07:13:17;;;;;;;6.53;1.00;;;2.00;99.90;;;;;;5082822;28;20363;-68
2023/03/15 07:15:43;;;;;;;3.80;1.00;;;1.90;99.90;;;;;;5081272;28;20036;-68
2023/03/15 07:18:08;;;;;;;6.97;1.30;;;1.70;99.90;;;;;;5079463;28;20050;-68
2023/03/15 07:20:34;;;;;;;3.35;0.90;;;2.20;99.90;;;;;;5070754;28;20399;-68
2023/03/15 07:23:00;;;;;;;5.82;1.10;;;2.30;99.90;;;;;;5076073;28;20079;-68
2023/03/15 07:25:25;;;;;;;3.63;1.00;;;2.20;99.90;;;;;;5087497;28;20471;-69
2023/03/15 07:27:52;;;;;;;5.00;1.10;;;2.20;99.90;;;;;;5089659;28;20052;-68
2023/03/15 07:30:19;;;;;;;4.90;1.17;;;2.30;99.90;;;;;;5072986;28;20052;-68
2023/03/15 07:32:45;;;;;;;4.70;1.25;;;2.80;99.90;;;;;;5089540;28;20470;-68
2023/03/15 07:35:12;;;;;;;6.75;1.10;;;3.00;99.90;;;;;;5088471;28;20072;-68
2023/03/15 07:37:38;;;;;;;5.88;1.50;;;3.30;99.90;;;;;;5059801;28;20045;-68
2023/03/15 07:40:08;;;;;;;5.22;1.10;;;3.30;99.90;;;;;;5071602;28;20403;-68
2023/03/15 07:42:37;;;;;;;4.13;1.05;;;3.30;99.90;;;;;;5074073;28;20040;-68
2023/03/15 07:45:07;;;;;;;7.03;1.40;;;3.40;99.90;;;;;;5084223;28;20070;-67
2023/03/15 07:47:33;;;;;;;6.07;1.23;;;3.50;99.90;;;;;;5085916;28;20110;-67
2023/03/15 07:49:59;;;;;;;8.93;1.73;;;3.80;99.90;;;;;;5071139;28;20040;-68
2023/03/15 07:52:25;;;;;;;6.65;1.70;;;3.90;99.90;;;;;;5084604;28;20126;-68
2023/03/15 07:54:51;;;;;;;7.35;1.38;;;3.80;99.90;;;;;;5083133;28;20051;-68
2023/03/15 07:57:17;;;;;;;8.35;1.35;;;3.90;99.90;;;;;;5077180;28;20405;-68
2023/03/15 07:59:42;;;;;;;9.85;1.40;;;4.00;99.90;;;;;;5077598;28;20048;-68
2023/03/15 08:02:12;;;;;;;6.90;1.35;;;4.30;99.90;;;;;;5068716;28;20112;-68
2023/03/15 08:04:38;;;;;;;6.10;1.30;;;4.20;99.90;;;;;;5078609;28;20043;-68
2023/03/15 08:07:04;;;;;;;5.10;1.02;;;4.20;99.90;;;;;;5069388;28;20052;-68
2023/03/15 08:09:31;;;;;;;7.93;1.52;;;4.50;99.90;;;;;;5073543;28;20040;-68
2023/03/15 08:11:57;;;;;;;8.60;1.58;;;4.50;99.90;;;;;;5071133;28;20048;-68
2023/03/15 08:14:23;;;;;;;5.95;1.63;;;4.60;99.90;;;;;;5052307;28;20052;-67
2023/03/15 08:16:49;;;;;;;5.85;1.42;;;4.60;99.90;;;;;;5080228;28;20090;-67
2023/03/15 08:19:15;;;;;;;5.22;1.58;;;4.80;99.90;;;;;;5084119;28;20499;-67
2023/03/15 08:21:44;;;;;;;7.47;1.85;;;4.80;99.90;;;;;;5070477;28;20054;-67
2023/03/15 08:24:11;;;;;;;9.38;1.40;;;4.90;99.90;;;;;;5077626;28;20063;-68
2023/03/15 08:26:36;;;;;;;7.00;1.95;;;4.70;99.90;;;;;;5085481;28;20036;-68
2023/03/15 08:29:03;;;;;;;8.18;1.92;;;4.80;99.90;;;;;;5074181;28;20044;-67
2023/03/15 08:31:29;;;;;;;7.43;1.50;;;4.90;99.90;;;;;;5074086;28;20072;-68
2023/03/15 08:33:55;;;;;;;6.93;1.67;;;4.80;99.90;;;;;;5079873;28;20120;-67
2023/03/15 08:36:21;;;;;;;7.18;1.60;;;4.90;99.90;;;;;;5088600;28;20684;-67
2023/03/15 08:38:47;;;;;;;8.43;1.38;;;4.90;99.90;;;;;;5070194;28;20056;-67
2023/03/15 08:41:12;;;;;;;7.75;1.60;;;5.10;99.90;;;;;;5084562;28;20101;-67
2023/03/15 08:43:38;;;;;;;4.05;1.20;;;5.10;99.90;;;;;;5090195;28;20044;-68
2023/03/15 08:46:04;;;;;;;4.18;1.50;;;5.10;99.90;;;;;;5077689;28;20048;-68
2023/03/15 08:48:30;;;;;;;7.30;1.20;;;5.10;99.90;;;;;;5081770;28;20050;-68
2023/03/15 08:51:02;;;;;;;4.15;1.20;;;5.20;99.90;;;;;;5058906;28;20047;-68
2023/03/15 08:53:27;;;;;;;4.07;1.33;;;5.30;99.90;;;;;;5079130;28;20336;-68
2023/03/15 08:55:53;;;;;;;11.50;1.90;;;5.40;99.90;;;;;;5086058;28;20050;-68
2023/03/15 08:58:19;;;;;;;7.20;1.92;;;5.30;99.90;;;;;;5086757;28;20823;-68
2023/03/15 09:00:45;;;;;;;7.00;1.30;;;5.40;99.90;;;;;;5088775;28;20040;-68
2023/03/15 09:03:11;;;;;;;10.95;1.42;;;5.40;99.90;;;;;;5078484;28;20075;-67
2023/03/15 09:05:37;;;;;;;3.83;1.27;;;5.50;99.90;;;;;;5069866;28;20072;-67
2023/03/15 09:08:03;;;;;;;5.63;1.20;;;5.60;99.90;;;;;;5070619;28;20048;-67
2023/03/15 09:10:29;;;;;;;6.07;1.10;;;5.60;99.90;;;;;;5075601;28;20047;-67
2023/03/15 09:12:54;;;;;;;9.45;1.50;;;5.70;99.90;;;;;;5082995;28;20487;-67
2023/03/15 09:15:20;;;;;;;7.65;1.52;;;5.80;99.90;;;;;;5078271;28;20028;-67
2023/03/15 09:17:49;;;;;;;6.60;1.33;;;5.80;81.80;;;;;;5081511;28;20090;-67
2023/03/15 09:20:26;;;;;;;7.95;1.35;;;5.90;99.90;;;;;;5075649;28;20035;-67
2023/03/15 09:22:54;;;;;;;4.97;1.10;;;5.90;97.90;;;;;;5083449;28;20042;-67
2023/03/15 09:25:21;;;;;;;8.65;1.50;;;6.00;99.40;;;;;;5072324;28;20040;-67
2023/03/15 09:27:48;;;;;;;7.00;1.20;;;6.00;78.10;;;;;;5071877;28;20040;-68
2023/03/15 09:30:14;;;;;;;10.60;1.50;;;6.00;76.20;;;;;;5086354;28;20040;-68
2023/03/15 09:32:40;;;;;;;4.45;1.00;;;6.10;73.50;;;;;;5083250;28;20119;-69
2023/03/15 09:35:09;;;;;;;7.78;1.33;;;6.10;73.60;;;;;;5077989;28;20044;-67
2023/03/15 09:37:35;;;;;;;5.47;1.30;;;6.10;42.40;;;;;;5079863;28;20052;-68
2023/03/15 09:40:01;;;;;;;4.90;1.15;;;6.30;78.00;;;;;;5075840;28;20050;-67
2023/03/15 09:42:33;;;;;;;7.05;1.20;;;6.40;46.00;;;;;;5080645;28;20097;-67
2023/03/15 09:45:28;;;;;;;7.03;1.20;;;6.40;47.30;;;;;;5074117;28;20048;-69
2023/03/15 09:47:58;;;;;;;7.55;1.10;;;6.50;33.40;;;;;;5053724;28;20539;-68
2023/03/15 09:50:29;;;;;;;5.55;1.30;;;6.50;36.30;;;;;;5074064;28;20130;-68
2023/03/15 09:53:01;;;;;;;5.38;1.23;;;6.60;33.80;;;;;;5070759;28;20463;-69
2023/03/15 09:55:28;;;;;;;7.25;1.65;;;6.70;28.40;;;;;;5080663;28;20047;-68
2023/03/15 09:58:10;;;;;;;5.50;1.35;;;6.70;5.70;;;;;;5073827;28;20056;-68
2023/03/15 10:01:11;;;;;;;5.63;1.33;;;6.70;2.40;;;;;;5073756;28;20040;-68
2023/03/15 10:03:50;;;;;;;5.00;1.13;;;6.90;4.60;;;;;;5068202;28;20044;-68
2023/03/15 10:06:22;;;;;;;3.38;1.10;;;6.90;1.00;;;;;;5091173;28;20047;-68
2023/03/15 10:08:53;;;;;;;5.63;1.25;;;6.80;1.00;;;;;;5078714;28;20665;-67
2023/03/15 10:11:46;;;;;;;5.85;1.17;;;6.80;1.00;;;;;;5070270;28;20444;-68
2023/03/15 10:14:24;;;;;;;6.53;1.70;;;6.90;1.00;;;;;;5054257;28;20087;-68
2023/03/15 10:16:51;;;;;;;3.30;1.15;;;7.00;1.00;;;;;;5077496;28;20446;-67
2023/03/15 10:19:24;;;;;;;6.60;1.17;;;7.00;1.00;;;;;;5059618;28;20040;-67
2023/03/15 10:21:55;;;;;;;5.60;1.05;;;7.10;16.20;;;;;;5081466;28;20098;-68
2023/03/15 10:24:29;;;;;;;6.22;1.63;;;7.10;6.50;;;;;;5069752;28;20043;-68
2023/03/15 10:26:58;;;;;;;5.05;1.10;;;7.20;12.60;;;;;;5077942;28;20086;-67
2023/03/15 10:29:25;;;;;;;4.68;1.27;;;7.30;1.00;;;;;;5075193;28;20044;-68
2023/03/15 10:31:53;;;;;;;6.72;1.40;;;7.30;1.00;;;;;;5078184;28;20051;-68
2023/03/15 10:34:18;;;;;;;9.45;1.20;;;7.50;7.30;;;;;;5087970;28;20048;-67
2023/03/15 10:36:48;;;;;;;5.40;1.05;;;7.50;1.00;;;;;;5080421;28;20056;-67
2023/03/15 10:39:15;;;;;;;5.53;1.13;;;7.60;1.00;;;;;;5080529;28;20439;-67
2023/03/15 10:41:47;;;;;;;5.65;1.23;;;7.80;1.00;;;;;;5084017;28;20032;-68
2023/03/15 10:44:27;;;;;;;5.95;1.40;;;7.80;1.00;;;;;;5080220;28;20076;-68
2023/03/15 10:47:11;;;;;;;5.10;1.05;;;7.70;1.00;;;;;;5070876;28;20113;-68
2023/03/15 10:49:39;;;;;;;5.80;1.50;;;7.60;1.00;;;;;;5072087;28;20083;-69
2023/03/15 10:52:23;;;;;;;6.25;1.38;;;7.30;1.00;;;;;;5080582;28;20058;-69
2023/03/15 10:54:51;;;;;;;7.43;1.30;;;7.30;1.00;;;;;;5074175;28;20040;-69
2023/03/15 10:57:20;;;;;;;4.13;1.00;;;7.60;7.10;;;;;;5072913;28;20121;-68
2023/03/15 11:00:16;;;;;;;5.43;1.05;;;8.10;1.00;;;;;;5075104;28;20071;-68
2023/03/15 11:03:00;;;;;;;6.68;1.30;;;8.10;1.00;;;;;;5083989;28;20042;-67
2023/03/15 11:05:29;;;;;;;6.70;1.23;;;8.10;1.00;;;;;;5073701;28;20036;-68
2023/03/15 11:07:58;;;;;;;5.95;1.20;;;8.20;1.00;;;;;;5077121;28;20044;-68
2023/03/15 11:10:27;;;;;;;6.05;1.20;;;8.60;1.00;;;;;;5079096;28;20331;-67
2023/03/15 11:13:10;;;;;;;5.35;1.30;;;8.60;1.00;;;;;;5072827;28;20523;-67
2023/03/15 11:15:36;;;;;;;5.25;1.17;;;8.50;1.00;;;;;;5070779;28;20040;-67
2023/03/15 11:18:01;;;;;;;8.90;1.50;;;8.30;1.00;;;;;;5071729;28;20044;-67
2023/03/15 11:20:35;;;;;;;4.80;1.55;;;8.50;1.00;;;;;;5076559;28;20093;-67
2023/03/15 11:23:21;;;;;;;4.50;1.13;;;8.50;1.00;;;;;;5075621;28;20559;-67
2023/03/15 11:25:46;;;;;;;5.45;1.05;;;8.50;1.00;;;;;;5077119;28;20383;-68
2023/03/15 11:28:19;;;;;;;3.95;1.10;;;8.40;1.00;;;;;;5069276;28;20044;-66
2023/03/15 11:30:46;;;;;;;6.70;1.20;;;8.90;1.00;;;;;;5071926;28;20044;-66
2023/03/15 11:33:25;;;;;;;4.90;1.00;;;8.70;1.00;;;;;;5075738;28;20537;-67
2023/03/15 11:35:53;;;;;;;4.68;1.27;;;8.60;1.00;;;;;;5072738;28;20091;-67
2023/03/15 11:38:34;;;;;;;5.80;1.13;;;8.10;1.00;;;;;;5070095;28;20072;-67
2023/03/15 11:41:10;;;;;;;4.85;1.25;;;8.10;1.00;;;;;;5070644;28;20044;-67
2023/03/15 11:44:13;;;;;;;5.95;1.60;;;7.90;1.00;;;;;;5079751;28;20040;-67
2023/03/15 11:46:47;;;;;;;5.22;1.20;;;8.10;1.00;;;;;;5082962;28;20040;-67
2023/03/15 11:49:32;;;;;;;5.45;1.30;;;8.60;1.00;;;;;;5081613;28;20048;-67
2023/03/15 11:51:58;;;;;;;7.47;1.00;;;9.10;1.00;;;;;;5073180;28;20055;-67
2023/03/15 11:54:28;;;;;;;4.45;1.10;;;9.40;99.90;;;;;;5054979;28;20164;-67
2023/03/15 11:57:38;;;;;;;5.30;1.17;;;9.20;99.90;;;;;;5077362;28;20055;-67
2023/03/15 12:00:20;;;;;;;6.28;1.40;;;9.60;99.90;;;;;;5069921;28;20129;-67
2023/03/15 12:02:51;;;;;;;6.40;1.38;;;9.80;1.00;;;;;;5068891;28;20079;-67
2023/03/15 12:05:46;;;;;;;4.07;1.10;;;9.90;99.90;;;;;;5077741;28;20479;-67
2023/03/15 12:08:51;;;;;;;4.03;1.00;;;9.80;99.90;;;;;;5065951;28;20226;-67
2023/03/15 12:11:20;;;;;;;4.40;1.02;;;9.80;99.90;;;;;;5073606;28;20044;-67
2023/03/15 12:14:03;;;;;;;4.95;1.10;;;9.80;99.90;;;;;;5069495;28;20070;-67
2023/03/15 12:16:34;;;;;;;4.18;0.80;;;10.00;99.90;;;;;;5068631;28;20047;-67
2023/03/15 12:19:14;;;;;;;5.93;1.15;;;10.00;99.90;;;;;;5082146;28;20040;-67
2023/03/15 12:21:45;;;;;;;5.75;1.00;;;9.70;99.90;;;;;;5084707;28;20040;-66
2023/03/15 12:24:26;;;;;;;5.85;1.20;;;10.10;99.90;;;;;;5071027;28;20525;-67
2023/03/15 12:27:15;;;;;;;4.43;1.17;;;10.00;99.90;;;;;;5070371;28;20048;-67
2023/03/15 12:29:46;;;;;;;7.20;1.80;;;9.60;99.90;;;;;;5087961;28;20040;-67
2023/03/15 12:32:17;;;;;;;5.22;1.00;;;9.50;99.90;;;;;;5079736;28;20111;-67
2023/03/15 12:34:47;;;;;;;5.18;1.13;;;9.70;99.90;;;;;;5054981;28;20045;-67
2023/03/15 12:37:43;;;;;;;5.35;1.40;;;9.80;99.90;;;;;;5069849;28;20060;-67
2023/03/15 12:40:14;;;;;;;5.07;1.13;;;9.90;99.90;;;;;;5083805;28;20062;-67
2023/03/15 12:42:40;;;;;;;6.05;1.45;;;10.00;99.90;;;;;;5059511;28;20441;-67
2023/03/15 12:45:15;;;;;;;3.55;1.00;;;9.80;99.90;;;;;;5070978;28;20102;-67
2023/03/15 12:48:11;;;;;;;4.32;1.23;;;10.00;99.90;;;;;;5057086;28;20085;-67
2023/03/15 12:50:43;;;;;;;4.60;1.10;;;9.80;99.90;;;;;;5072079;28;20571;-67
2023/03/15 12:53:24;;;;;;;5.82;1.10;;;10.20;99.90;;;;;;5084060;28;20046;-67
2023/03/15 12:55:50;;;;;;;4.60;1.08;;;10.10;99.90;;;;;;5091388;28;20052;-67
2023/03/15 12:58:19;;;;;;;4.65;0.98;;;9.80;99.90;;;;;;5087169;28;20391;-67
2023/03/15 13:00:45;;;;;;;5.38;1.20;;;10.10;99.90;;;;;;5088262;28;20051;-67
2023/03/15 13:03:19;;;;;;;5.65;1.20;;;10.20;99.90;;;;;;5077046;28;20514;-67
2023/03/15 13:06:23;;;;;;;6.15;1.30;;;10.30;99.90;;;;;;5081013;28;20747;-67
2023/03/15 13:08:57;;;;;;;6.20;1.25;;;10.10;99.90;;;;;;5072101;28;20067;-67
2023/03/15 13:11:55;;;;;;;4.18;1.08;;;10.20;99.90;;;;;;5080443;28;20776;-67